Terminal Aerodrome Forecast
Issued by NWS Buffalo, NY

Home | Current Version | Previous Version | Text Only | Print | Product List | Glossary On
Versions: 1 2 3 4 5 6 7 8 9 10 11 12 13 14 15 16 17 18 19 20 21 22 23 24 25 26 27
000
FTUS41 KBUF 221300 AAA
TAFBUF
TAF AMD
KBUF 221357Z 2214/2312 35010KT P6SM BKN035 OVC045
     FM222000 31013G20KT P6SM BKN035
     FM222300 27010KT P6SM BKN035
     FM230400 24006KT P6SM SCT035
     FM230900 23006KT P6SM BKN090=

USA.gov is the U.S. government's official web portal to all federal, state and local government web resources and services.